Coy, Arkansas
Current Conditions -  °F | °C
As of 8:55 PM on Wednesday 22 Oct 2014 (Local Time) from KSGT Reporting Station
Clear Clear  
Wind Chill: 54°   Ceiling: Unl
Heat Index: 54°   Visibility: 10mi
Dew Point: 45°   Wind: 5mph
Humidity: 72%   Direction: 50°NE
Pressure: 30.18"   Gusts: NA
Location:  34.54°N, 91.87°W
Report Text: KSGT 230155Z AUTO 05004KT 10SM CLR 12/07 A3018 RMK AO1
Loading
Personal Weather Stations






























Interactive Weather Map
Tropical Storm Tracking
New forecast layout! Learn more

10-Day Weather Forecast

Advertisements
Track Severe Weather on mobile